Latest Weather Observations for Kalgoorlie-Boulder

IDW60801

Issued at 4:04 pm WST Sunday 28 May 2017 (issued every 30 minutes, with the page automatically refreshed every 10 minutes)

About weather observations | Map of weather stations | Latest weather observations for WA | Other Formats
Station Details ID: 012038 Name: KALGOORLIE-BOULDER AIRPORT Lat: -30.78 Lon: 121.45 Height: 365.3 m
Data from the previous 72 hours. | See also: Recent months at Kalgoorlie-Boulder
Date/Time
WST
Temp
°C
App
Temp
°C
Dew
Point
°C
Rel
Hum
%
Delta-T
°C
Wind Press
QNH
hPa
Press
MSL
hPa
Rain since
9am
mm
Dir  Spd
km/h
Gust
km/h
Spd
kts
Gust
kts
28/04:00pm 15.5 12.1 4.2 47 5.3 SE 11 15 6 8 1024.6 - 0.0
28/03:30pm 16.1 13.2 4.5 46 5.5 ESE 9 17 5 9 1024.6 - 0.0
28/03:00pm 16.0 13.1 4.4 46 5.5 ESE 9 17 5 9 1024.4 1024.0 0.0
28/02:30pm 16.3 12.7 5.0 47 5.5 S 13 22 7 12 1024.5 - 0.0
28/02:00pm 16.2 12.5 4.6 46 5.6 SSE 13 20 7 11 1024.5 - 0.0
28/01:30pm 15.4 12.5 4.8 49 5.1 ESE 9 13 5 7 1024.8 - 0.0
28/01:00pm 15.4 12.9 4.8 49 5.1 WSW 7 9 4 5 1025.1 - 0.0
28/12:30pm 15.7 13.4 5.0 49 5.2 NNE 6 9 3 5 1025.5 - 0.0
28/12:00pm 14.7 12.5 5.2 53 4.5 ENE 6 13 3 7 1025.7 1025.3 0.0
28/11:30am 13.7 10.9 5.1 56 4.1 E 9 13 5 7 1026.3 - 0.0
28/11:00am 13.2 10.1 5.4 59 3.7 E 11 17 6 9 1026.9 - 0.0
28/10:30am 13.7 10.2 5.6 58 3.9 E 13 19 7 10 1027.2 - 0.0
28/10:00am 13.4 10.2 5.3 58 3.9 SSE 11 15 6 8 1027.5 - 0.0
28/09:30am 13.0 9.2 5.7 61 3.5 ESE 15 28 8 15 1027.4 - 0.0
28/09:00am 12.4 8.0 6.5 67 2.8 ESE 19 22 10 12 1027.5 1027.1 0.0
28/08:30am 11.9 8.3 6.6 70 2.6 SE 15 20 8 11 1027.4 - 0.0
28/08:00am 11.2 8.1 7.1 76 2.0 SE 13 17 7 9 1027.1 - 0.0
28/07:30am 10.6 7.0 6.9 78 1.8 SE 15 19 8 10 1026.8 - 0.0
28/07:00am 10.8 7.6 6.9 77 1.9 SE 13 17 7 9 1026.3 - 0.0
28/06:30am 10.7 7.8 6.3 74 2.1 SE 11 15 6 8 1025.9 - 0.0
28/06:00am 10.7 8.2 6.5 75 2.0 SSE 9 13 5 7 1025.8 1025.4 0.0
28/05:30am 10.7 8.2 6.5 75 2.0 SSE 9 13 5 7 1025.7 - 0.0
28/05:00am 10.6 8.1 6.6 76 1.9 SE 9 11 5 6 1025.6 - 0.0
28/04:30am 10.2 7.7 6.4 77 1.8 SE 9 11 5 6 1025.5 - 0.0
28/04:00am 10.8 8.3 6.7 76 2.0 SE 9 11 5 6 1025.4 - 0.0
28/03:30am 11.3 8.1 6.8 74 2.2 SE 13 19 7 10 1025.4 - 0.0
28/03:00am 11.3 8.8 6.4 72 2.3 SSE 9 15 5 8 1025.5 1025.1 0.0
28/02:30am 11.0 9.0 6.4 73 2.2 SE 6 7 3 4 1025.5 - 0.0
28/02:00am 11.2 8.7 6.7 74 2.2 SSE 9 11 5 6 1025.5 - 0.0
28/01:30am 10.8 7.8 6.2 73 2.2 S 11 15 6 8 1025.3 - 0.0
28/01:00am 9.8 7.3 5.0 72 2.2 SSE 7 9 4 5 1025.3 - 0.0
28/12:30am 9.0 6.7 4.6 74 2.0 SSE 6 7 3 4 1025.2 - 0.0
28/12:00am 8.1 5.5 4.1 76 1.8 SE 7 11 4 6 1025.4 1025.0 0.0
 
Date/Time
WST
Temp
°C
App
Temp
°C
Dew
Point
°C
Rel
Hum
%
Delta-T
°C
Wind Press
QNH
hPa
Press
MSL
hPa
Rain since
9am
mm
Dir  Spd
km/h
Gust
km/h
Spd
kts
Gust
kts
27/11:30pm 7.5 4.8 3.6 76 1.7 SSE 7 9 4 5 1025.3 - 0.0
27/11:00pm 7.6 4.8 3.1 73 1.9 SSE 7 9 4 5 1025.4 - 0.0
27/10:30pm 7.9 5.2 3.6 74 1.9 SSE 7 9 4 5 1025.5 - 0.0
27/10:00pm 8.2 5.5 3.7 73 2.0 SSE 7 7 4 4 1025.6 - 0.0
27/09:30pm 8.2 5.6 4.2 76 1.8 SE 7 7 4 4 1025.5 - 0.0
27/09:00pm 8.5 6.0 3.9 73 2.0 SE 6 9 3 5 1025.3 1024.9 0.0
27/08:30pm 9.4 6.8 4.0 69 2.4 SE 7 7 4 4 1025.2 - 0.0
27/08:00pm 9.7 7.1 4.3 69 2.4 SSE 7 7 4 4 1025.0 - 0.0
27/07:30pm 9.7 7.3 4.3 69 2.4 SE 6 7 3 4 1024.7 - 0.0
27/07:00pm 10.2 7.6 4.4 67 2.6 SE 7 7 4 4 1024.5 - 0.0
27/06:30pm 10.9 8.3 4.1 63 3.1 SSE 7 9 4 5 1024.2 - 0.0
27/06:00pm 12.5 9.6 4.7 59 3.6 SSE 9 11 5 6 1023.9 1023.4 0.0
27/05:30pm 13.3 9.6 4.7 56 4.0 SE 13 17 7 9 1023.6 - 0.0
27/05:00pm 14.5 10.9 4.8 52 4.6 SSE 13 17 7 9 1023.4 - 0.0
27/04:30pm 15.7 11.9 3.8 45 5.6 S 13 20 7 11 1023.1 - 0.0
27/04:00pm 16.3 11.8 4.0 44 5.8 S 17 20 9 11 1023.1 - 0.0
27/03:30pm 16.5 12.0 4.2 44 5.9 S 17 24 9 13 1023.0 - 0.0
27/03:00pm 16.6 12.9 4.6 45 5.8 SSE 13 19 7 10 1022.9 1022.5 0.0
27/02:30pm 16.7 11.8 5.0 46 5.7 S 20 26 11 14 1022.7 - 0.0
27/02:00pm 16.4 11.5 4.1 44 5.9 SE 19 24 10 13 1022.6 - 0.0
27/01:30pm 16.6 12.9 4.3 44 5.9 ESE 13 20 7 11 1022.7 - 0.0
27/01:00pm 16.4 12.8 5.1 47 5.5 SE 13 20 7 11 1022.9 - 0.0
27/12:30pm 15.5 11.1 4.8 49 5.1 S 17 24 9 13 1023.4 - 0.0
27/12:00pm 15.6 11.6 4.9 49 5.1 SSE 15 20 8 11 1023.7 1023.2 0.0
27/11:30am 15.8 11.8 6.5 54 4.6 ESE 17 26 9 14 1024.1 - 0.0
27/11:00am 14.6 11.1 7.4 62 3.6 ESE 15 24 8 13 1024.7 - 0.0
27/10:30am 13.8 9.9 7.3 65 3.2 SE 17 22 9 12 1024.9 - 0.0
27/10:00am 13.5 9.8 8.1 70 2.7 SE 17 22 9 12 1024.9 - 0.0
27/09:47am 13.0 9.8 8.5 74 2.3 SE 15 26 8 14 1024.9 - 0.0
27/09:30am 12.1 8.2 8.6 79 1.8 SE 19 26 10 14 1024.9 - 0.0
27/09:00am 10.7 7.3 9.1 90 0.8 SSE 17 24 9 13 1024.7 1024.3 0.0
27/08:30am 9.0 5.9 8.9 99 0.0 S 15 20 8 11 1024.7 - 0.0
27/08:14am 8.5 6.0 8.4 99 0.0 S 11 13 6 7 1024.5 - 0.0
27/08:00am 8.0 5.4 7.9 99 0.0 S 11 15 6 8 1024.3 - 0.0
27/07:46am 7.6 4.9 7.5 99 0.0 S 11 13 6 7 1024.1 - 0.0
27/07:30am 7.4 3.9 7.3 99 0.0 S 15 20 8 11 1024.0 - 0.0
27/07:00am 6.7 3.4 6.6 99 0.0 S 13 17 7 9 1023.6 - 0.0
27/06:45am 6.4 3.4 6.1 98 0.1 S 11 13 6 7 1023.4 - 0.0
27/06:35am 6.1 3.1 5.8 98 0.1 SSW 11 13 6 7 1023.2 - 0.0
27/06:30am 5.6 2.4 5.2 97 0.2 SSW 11 13 6 7 1023.1 - 0.0
27/06:18am 5.9 2.8 5.5 97 0.2 SSW 11 13 6 7 1023.0 - 0.0
27/06:00am 5.0 2.0 4.0 93 0.4 SSW 9 11 5 6 1022.7 1022.3 0.0
27/05:30am 5.9 3.4 4.9 93 0.4 SSW 7 9 4 5 1022.4 - 0.0
27/05:00am 5.7 2.8 4.8 94 0.4 S 9 9 5 5 1022.0 - 0.0
27/04:30am 5.8 4.7 5.2 96 0.3 CALM 0 4 0 2 1021.8 - 0.0
27/04:00am 6.0 4.8 4.8 92 0.5 CALM 0 0 0 0 1021.8 - 0.0
27/03:30am 6.8 4.6 5.4 91 0.6 S 6 9 3 5 1021.6 - 0.0
27/03:00am 7.5 5.2 5.8 89 0.8 SSE 7 9 4 5 1021.5 1021.0 0.0
27/02:30am 8.4 4.8 6.7 89 0.8 SW 15 17 8 9 1021.4 - 0.0
27/02:00am 8.5 5.5 7.6 94 0.4 SW 13 15 7 8 1021.4 - 0.0
27/01:30am 8.2 5.4 7.1 93 0.5 SW 11 13 6 7 1021.3 - 0.0
27/01:00am 8.6 6.3 7.5 93 0.5 WSW 9 11 5 6 1021.3 - 0.0
27/12:30am 8.6 6.3 7.4 92 0.6 SSW 9 11 5 6 1021.3 - 0.0
27/12:00am 8.7 8.1 7.2 90 0.7 CALM 0 0 0 0 1021.3 1020.8 0.0
 
Date/Time
WST
Temp
°C
App
Temp
°C
Dew
Point
°C
Rel
Hum
%
Delta-T
°C
Wind Press
QNH
hPa
Press
MSL
hPa
Rain since
9am
mm
Dir  Spd
km/h
Gust
km/h
Spd
kts
Gust
kts
26/11:30pm 9.5 8.7 8.1 91 0.7 S 2 6 1 3 1021.2 - 0.0
26/11:00pm 10.1 8.3 8.0 87 1.0 S 7 11 4 6 1021.1 - 0.0
26/10:30pm 10.0 7.7 7.4 84 1.3 S 9 11 5 6 1021.1 - 0.0
26/10:00pm 10.8 8.9 7.7 81 1.5 S 7 9 4 5 1021.0 - 0.0
26/09:30pm 11.6 9.8 7.9 78 1.8 S 7 9 4 5 1020.8 - 0.0
26/09:00pm 12.1 10.5 8.2 77 2.0 S 6 7 3 4 1020.7 1020.2 0.0
26/08:30pm 12.8 11.0 7.9 72 2.5 S 7 9 4 5 1020.5 - 0.0
26/08:00pm 14.5 11.3 8.5 67 3.1 S 15 20 8 11 1020.1 - 0.0
26/07:30pm 15.1 11.4 8.1 63 3.6 S 17 19 9 10 1019.7 - 0.0
26/07:00pm 15.4 11.4 6.7 56 4.3 SSW 17 20 9 11 1019.4 - 0.0
26/06:30pm 15.9 12.3 5.2 49 5.2 SSW 13 15 7 8 1019.1 - 0.0
26/06:00pm 15.9 12.6 4.3 46 5.5 SSW 11 11 6 6 1018.7 1018.2 0.0
26/05:30pm 16.9 13.4 3.6 41 6.3 SSW 11 13 6 7 1018.4 - 0.0
26/05:00pm 18.7 15.1 2.9 35 7.5 SSW 11 15 6 8 1018.1 - 0.0
26/04:30pm 20.0 15.2 2.8 32 8.2 SW 17 26 9 14 1017.9 - 0.0
26/04:00pm 20.7 14.7 3.4 32 8.4 SSW 24 35 13 19 1017.8 - 0.0
26/03:30pm 22.3 16.9 1.3 25 9.9 WSW 19 28 10 15 1017.4 - 0.0
26/03:00pm 22.7 17.4 1.7 25 10.0 W 19 30 10 16 1017.3 1016.9 0.0
26/02:30pm 22.5 17.3 2.6 27 9.6 W 19 26 10 14 1017.3 - 0.0
26/02:00pm 22.6 17.1 2.1 26 9.8 WSW 20 30 11 16 1017.4 - 0.0
26/01:30pm 22.4 17.3 3.0 28 9.4 WSW 19 28 10 15 1017.6 - 0.0
26/01:00pm 22.1 17.0 2.8 28 9.3 WSW 19 30 10 16 1017.8 - 0.0
26/12:30pm 21.0 17.7 4.6 34 8.1 SSW 11 20 6 11 1018.1 - 0.0
26/12:00pm 19.8 15.8 4.7 37 7.4 SSW 15 22 8 12 1018.6 1018.1 0.0
26/11:30am 19.7 15.6 4.6 37 7.4 SSW 15 24 8 13 1019.2 - 0.0
26/11:00am 18.5 15.2 4.7 40 6.7 SSW 11 15 6 8 1019.5 - 0.0
26/10:30am 18.2 14.7 5.4 43 6.3 S 13 17 7 9 1019.9 - 0.0
26/10:00am 16.5 12.9 5.2 47 5.5 SSW 13 19 7 10 1020.1 - 0.0
26/09:30am 15.3 12.0 4.4 48 5.2 SSW 11 15 6 8 1020.5 - 0.0
26/09:00am 13.7 9.9 1.7 44 5.3 SSW 11 19 6 10 1020.6 1020.1 0.0
26/08:30am 12.2 9.5 0.3 44 5.0 SW 4 9 2 5 1020.5 - 0.0
26/08:00am 10.8 8.9 0.5 49 4.3 CALM 0 0 0 0 1020.0 - 0.0
26/07:41am 8.1 6.2 0.6 59 3.1 CALM 0 - 0 - 1020.1 - 0.0
26/07:30am 7.2 5.3 0.6 63 2.7 CALM 0 0 0 0 1020.0 - 0.0
26/07:00am 5.3 3.4 0.3 70 2.0 CALM 0 0 0 0 1019.6 - 0.0
26/06:30am 5.4 3.0 -0.2 67 2.2 SW 2 6 1 3 1019.7 - 0.0
26/06:00am 6.6 2.9 0.1 63 2.6 SW 9 11 5 6 1019.4 1018.9 0.0
26/05:30am 5.8 2.4 -0.7 63 2.5 SSW 7 13 4 7 1018.9 - 0.0
26/05:00am 6.1 4.0 -0.8 61 2.7 CALM 0 0 0 0 1018.6 - 0.0
26/04:30am 6.3 3.5 -0.4 62 2.6 N 4 7 2 4 1018.6 - 0.0
26/04:00am 7.6 4.8 -0.4 57 3.2 WNW 4 6 2 3 1018.3 - 0.0
26/03:30am 8.2 4.9 0.0 56 3.3 WNW 7 7 4 4 1018.4 - 0.0
26/03:00am 9.0 5.6 -0.9 50 3.9 NNW 7 9 4 5 1018.4 1017.9 0.0
26/02:30am 10.5 6.7 -0.9 45 4.6 NW 9 11 5 6 1018.5 - 0.0
26/02:00am 11.0 6.8 -0.8 44 4.8 NNW 11 13 6 7 1018.4 - 0.0
26/01:30am 11.2 7.0 -0.6 44 4.8 NNW 11 13 6 7 1018.5 - 0.0
26/01:00am 10.7 7.3 -0.4 46 4.6 NNW 7 9 4 5 1018.5 - 0.0
26/12:30am 11.7 8.0 -0.1 44 4.9 NNW 9 9 5 5 1018.7 - 0.0
26/12:00am 11.8 8.0 -0.4 43 5.0 N 9 11 5 6 1019.0 1018.5 0.0
 
Date/Time
WST
Temp
°C
App
Temp
°C
Dew
Point
°C
Rel
Hum
%
Delta-T
°C
Wind Press
QNH
hPa
Press
MSL
hPa
Rain since
9am
mm
Dir  Spd
km/h
Gust
km/h
Spd
kts
Gust
kts
25/11:30pm 12.1 8.0 -0.1 43 5.1 N 11 11 6 6 1019.2 - 0.0
25/11:00pm 12.3 8.7 0.4 44 5.0 N 9 9 5 5 1019.5 - 0.0
25/10:30pm 12.6 9.0 0.4 43 5.2 N 9 9 5 5 1019.6 - 0.0
25/10:00pm 12.3 8.8 1.0 46 4.9 N 9 11 5 6 1019.7 - 0.0
25/09:30pm 12.5 9.4 1.2 46 4.9 N 7 9 4 5 1019.8 - 0.0
25/09:00pm 12.7 9.5 0.8 44 5.1 N 7 7 4 4 1019.9 1019.5 0.0
25/08:30pm 12.4 9.4 0.8 45 5.0 N 6 7 3 4 1019.8 - 0.0
25/08:00pm 12.7 9.7 1.1 45 5.0 N 6 7 3 4 1019.7 - 0.0
25/07:30pm 13.5 10.7 1.8 45 5.2 N 6 6 3 3 1019.8 - 0.0
25/07:00pm 14.6 11.5 1.5 41 5.8 N 7 9 4 5 1019.9 - 0.0
25/06:30pm 14.5 12.7 1.4 41 5.8 CALM 0 0 0 0 1020.0 - 0.0
25/06:00pm 16.0 14.3 1.7 38 6.4 CALM 0 0 0 0 1019.8 1019.4 0.0
25/05:30pm 17.1 14.9 1.1 34 7.2 N 2 6 1 3 1019.5 - 0.0
25/05:00pm 18.9 16.1 1.9 32 7.9 N 6 7 3 4 1019.4 - 0.0
25/04:30pm 20.7 17.3 1.6 28 8.9 N 9 13 5 7 1019.4 - 0.0

Other Formats:

Comma delimited format used in spreadsheet applications
http://www.bom.gov.au/fwo/IDW60801/IDW60801.94637.axf

JavaScript Object Notation format (JSON) in row-major order
http://www.bom.gov.au/fwo/IDW60801/IDW60801.94637.json